sensor_id;sensor_type;location;lat;lon;timestamp;P1;durP1;ratioP1;P2;durP2;ratioP2
826;SDS011;395;48.132;11.608;2023-02-21T00:02:11;3.57;;;2.30;;
826;SDS011;395;48.132;11.608;2023-02-21T00:04:55;5.90;;;2.30;;
826;SDS011;395;48.132;11.608;2023-02-21T00:07:39;2.37;;;1.90;;
826;SDS011;395;48.132;11.608;2023-02-21T00:10:24;3.40;;;2.27;;
826;SDS011;395;48.132;11.608;2023-02-21T00:13:08;2.90;;;2.27;;
826;SDS011;395;48.132;11.608;2023-02-21T00:15:52;2.97;;;1.80;;
826;SDS011;395;48.132;11.608;2023-02-21T00:18:37;3.40;;;2.30;;
826;SDS011;395;48.132;11.608;2023-02-21T00:21:22;6.90;;;2.93;;
826;SDS011;395;48.132;11.608;2023-02-21T00:24:11;4.20;;;2.00;;
826;SDS011;395;48.132;11.608;2023-02-21T00:26:59;2.73;;;1.97;;
826;SDS011;395;48.132;11.608;2023-02-21T00:29:45;2.80;;;1.90;;
826;SDS011;395;48.132;11.608;2023-02-21T00:32:30;3.63;;;2.10;;
826;SDS011;395;48.132;11.608;2023-02-21T00:35:15;2.13;;;1.93;;
826;SDS011;395;48.132;11.608;2023-02-21T00:37:59;2.60;;;1.63;;
826;SDS011;395;48.132;11.608;2023-02-21T00:40:43;2.30;;;1.87;;
826;SDS011;395;48.132;11.608;2023-02-21T00:43:31;3.13;;;2.10;;
826;SDS011;395;48.132;11.608;2023-02-21T00:46:17;3.33;;;2.40;;
826;SDS011;395;48.132;11.608;2023-02-21T00:49:01;3.00;;;2.27;;
826;SDS011;395;48.132;11.608;2023-02-21T00:51:46;2.07;;;1.60;;
826;SDS011;395;48.132;11.608;2023-02-21T00:54:31;2.53;;;1.93;;
826;SDS011;395;48.132;11.608;2023-02-21T00:57:16;2.10;;;1.77;;
826;SDS011;395;48.132;11.608;2023-02-21T01:00:00;3.20;;;2.50;;
826;SDS011;395;48.132;11.608;2023-02-21T01:02:44;4.40;;;2.03;;
826;SDS011;395;48.132;11.608;2023-02-21T01:05:28;2.30;;;2.10;;
826;SDS011;395;48.132;11.608;2023-02-21T01:08:12;2.07;;;1.80;;
826;SDS011;395;48.132;11.608;2023-02-21T01:10:57;5.47;;;2.00;;
826;SDS011;395;48.132;11.608;2023-02-21T01:13:41;6.37;;;2.10;;
826;SDS011;395;48.132;11.608;2023-02-21T01:16:29;3.10;;;2.50;;
826;SDS011;395;48.132;11.608;2023-02-21T01:19:15;3.23;;;2.40;;
826;SDS011;395;48.132;11.608;2023-02-21T01:21:59;2.67;;;2.03;;
826;SDS011;395;48.132;11.608;2023-02-21T01:24:47;3.13;;;2.53;;
826;SDS011;395;48.132;11.608;2023-02-21T01:27:32;2.87;;;2.20;;
826;SDS011;395;48.132;11.608;2023-02-21T01:30:16;4.67;;;2.20;;
826;SDS011;395;48.132;11.608;2023-02-21T01:33:00;6.23;;;2.40;;
826;SDS011;395;48.132;11.608;2023-02-21T01:35:44;5.00;;;2.80;;
826;SDS011;395;48.132;11.608;2023-02-21T01:38:31;3.00;;;2.20;;
826;SDS011;395;48.132;11.608;2023-02-21T01:41:16;5.20;;;2.37;;
826;SDS011;395;48.132;11.608;2023-02-21T01:44:01;2.37;;;2.17;;
826;SDS011;395;48.132;11.608;2023-02-21T01:46:47;3.73;;;2.60;;
826;SDS011;395;48.132;11.608;2023-02-21T01:49:32;2.50;;;2.17;;
826;SDS011;395;48.132;11.608;2023-02-21T01:52:19;2.97;;;2.67;;
826;SDS011;395;48.132;11.608;2023-02-21T01:55:04;4.00;;;2.40;;
826;SDS011;395;48.132;11.608;2023-02-21T01:57:50;2.70;;;2.30;;
826;SDS011;395;48.132;11.608;2023-02-21T02:00:35;4.40;;;2.50;;
826;SDS011;395;48.132;11.608;2023-02-21T02:03:19;2.90;;;2.43;;
826;SDS011;395;48.132;11.608;2023-02-21T02:06:06;4.70;;;2.00;;
826;SDS011;395;48.132;11.608;2023-02-21T02:08:52;4.53;;;2.50;;
826;SDS011;395;48.132;11.608;2023-02-21T02:14:50;3.83;;;2.77;;
826;SDS011;395;48.132;11.608;2023-02-21T02:36:52;3.60;;;2.40;;
826;SDS011;395;48.132;11.608;2023-02-21T02:42:20;8.00;;;2.03;;
826;SDS011;395;48.132;11.608;2023-02-21T02:45:29;2.97;;;2.43;;
826;SDS011;395;48.132;11.608;2023-02-21T02:47:47;2.23;;;2.03;;
826;SDS011;395;48.132;11.608;2023-02-21T02:50:23;4.30;;;3.17;;
826;SDS011;395;48.132;11.608;2023-02-21T02:52:55;3.30;;;2.43;;
826;SDS011;395;48.132;11.608;2023-02-21T02:57:58;4.20;;;2.40;;
826;SDS011;395;48.132;11.608;2023-02-21T03:00:25;3.10;;;2.50;;
826;SDS011;395;48.132;11.608;2023-02-21T03:02:55;3.80;;;2.50;;
826;SDS011;395;48.132;11.608;2023-02-21T03:08:21;2.43;;;2.23;;
826;SDS011;395;48.132;11.608;2023-02-21T03:13:50;4.87;;;2.67;;
826;SDS011;395;48.132;11.608;2023-02-21T03:16:28;3.37;;;2.03;;
826;SDS011;395;48.132;11.608;2023-02-21T03:19:06;3.70;;;2.50;;
826;SDS011;395;48.132;11.608;2023-02-21T03:21:54;2.80;;;2.50;;
826;SDS011;395;48.132;11.608;2023-02-21T03:24:23;3.83;;;2.50;;
826;SDS011;395;48.132;11.608;2023-02-21T03:26:50;2.30;;;2.10;;
826;SDS011;395;48.132;11.608;2023-02-21T03:29:21;4.63;;;2.63;;
826;SDS011;395;48.132;11.608;2023-02-21T03:31:47;2.90;;;2.20;;
826;SDS011;395;48.132;11.608;2023-02-21T03:34:19;3.63;;;2.70;;
826;SDS011;395;48.132;11.608;2023-02-21T03:36:45;4.43;;;2.40;;
826;SDS011;395;48.132;11.608;2023-02-21T03:39:12;2.67;;;2.30;;
826;SDS011;395;48.132;11.608;2023-02-21T03:41:37;2.60;;;2.27;;
826;SDS011;395;48.132;11.608;2023-02-21T03:44:03;3.40;;;2.40;;
826;SDS011;395;48.132;11.608;2023-02-21T03:46:29;2.93;;;2.20;;
826;SDS011;395;48.132;11.608;2023-02-21T03:48:56;2.70;;;2.20;;
826;SDS011;395;48.132;11.608;2023-02-21T03:51:21;2.70;;;2.07;;
826;SDS011;395;48.132;11.608;2023-02-21T03:53:47;3.63;;;2.23;;
826;SDS011;395;48.132;11.608;2023-02-21T03:56:13;3.20;;;2.37;;
826;SDS011;395;48.132;11.608;2023-02-21T03:58:39;2.60;;;2.30;;
826;SDS011;395;48.132;11.608;2023-02-21T04:01:04;2.53;;;2.30;;
826;SDS011;395;48.132;11.608;2023-02-21T04:03:30;6.13;;;2.47;;
826;SDS011;395;48.132;11.608;2023-02-21T04:05:56;2.50;;;2.00;;
826;SDS011;395;48.132;11.608;2023-02-21T04:08:21;5.40;;;2.20;;
826;SDS011;395;48.132;11.608;2023-02-21T04:10:47;2.40;;;2.10;;
826;SDS011;395;48.132;11.608;2023-02-21T04:13:13;2.40;;;2.20;;
826;SDS011;395;48.132;11.608;2023-02-21T04:15:38;2.80;;;2.10;;
826;SDS011;395;48.132;11.608;2023-02-21T04:18:04;3.50;;;1.77;;
826;SDS011;395;48.132;11.608;2023-02-21T04:20:30;6.90;;;2.53;;
826;SDS011;395;48.132;11.608;2023-02-21T04:22:55;3.60;;;2.20;;
826;SDS011;395;48.132;11.608;2023-02-21T04:25:21;2.50;;;2.03;;
826;SDS011;395;48.132;11.608;2023-02-21T04:27:47;2.93;;;2.20;;
826;SDS011;395;48.132;11.608;2023-02-21T04:30:13;5.70;;;2.53;;
826;SDS011;395;48.132;11.608;2023-02-21T04:32:38;3.93;;;2.43;;
826;SDS011;395;48.132;11.608;2023-02-21T04:35:04;3.10;;;2.40;;
826;SDS011;395;48.132;11.608;2023-02-21T04:37:30;3.03;;;2.33;;
826;SDS011;395;48.132;11.608;2023-02-21T04:39:56;3.50;;;2.60;;
826;SDS011;395;48.132;11.608;2023-02-21T04:42:21;3.73;;;2.37;;
826;SDS011;395;48.132;11.608;2023-02-21T04:44:47;3.87;;;2.70;;
826;SDS011;395;48.132;11.608;2023-02-21T04:47:13;4.43;;;2.73;;
826;SDS011;395;48.132;11.608;2023-02-21T04:49:38;3.73;;;2.60;;
826;SDS011;395;48.132;11.608;2023-02-21T04:52:04;5.20;;;3.17;;
826;SDS011;395;48.132;11.608;2023-02-21T04:54:29;3.57;;;2.70;;
826;SDS011;395;48.132;11.608;2023-02-21T04:56:55;3.20;;;2.90;;
826;SDS011;395;48.132;11.608;2023-02-21T04:59:21;3.50;;;2.90;;
826;SDS011;395;48.132;11.608;2023-02-21T05:01:46;5.20;;;2.40;;
826;SDS011;395;48.132;11.608;2023-02-21T05:04:12;2.90;;;2.37;;
826;SDS011;395;48.132;11.608;2023-02-21T05:06:38;5.10;;;2.60;;
826;SDS011;395;48.132;11.608;2023-02-21T05:09:03;4.53;;;2.90;;
826;SDS011;395;48.132;11.608;2023-02-21T05:11:31;5.03;;;2.83;;
826;SDS011;395;48.132;11.608;2023-02-21T05:13:58;3.70;;;2.58;;
826;SDS011;395;48.132;11.608;2023-02-21T05:16:25;3.00;;;2.30;;
826;SDS011;395;48.132;11.608;2023-02-21T05:18:50;3.20;;;2.50;;
826;SDS011;395;48.132;11.608;2023-02-21T05:21:16;5.40;;;2.47;;
826;SDS011;395;48.132;11.608;2023-02-21T05:23:43;4.90;;;2.90;;
826;SDS011;395;48.132;11.608;2023-02-21T05:26:20;4.30;;;2.83;;
826;SDS011;395;48.132;11.608;2023-02-21T05:28:47;4.00;;;2.73;;
826;SDS011;395;48.132;11.608;2023-02-21T05:31:13;5.87;;;2.60;;
826;SDS011;395;48.132;11.608;2023-02-21T05:33:38;4.33;;;2.70;;
826;SDS011;395;48.132;11.608;2023-02-21T05:36:04;5.60;;;2.57;;
826;SDS011;395;48.132;11.608;2023-02-21T05:38:30;3.27;;;2.57;;
826;SDS011;395;48.132;11.608;2023-02-21T05:40:56;3.13;;;2.80;;
826;SDS011;395;48.132;11.608;2023-02-21T05:43:22;2.50;;;2.20;;
826;SDS011;395;48.132;11.608;2023-02-21T05:45:47;5.73;;;2.30;;
826;SDS011;395;48.132;11.608;2023-02-21T05:48:13;3.20;;;2.47;;
826;SDS011;395;48.132;11.608;2023-02-21T05:50:39;3.77;;;2.20;;
826;SDS011;395;48.132;11.608;2023-02-21T05:53:05;2.73;;;2.07;;
826;SDS011;395;48.132;11.608;2023-02-21T05:55:31;5.93;;;2.60;;
826;SDS011;395;48.132;11.608;2023-02-21T05:57:56;3.27;;;2.13;;
826;SDS011;395;48.132;11.608;2023-02-21T06:00:24;4.20;;;2.43;;
826;SDS011;395;48.132;11.608;2023-02-21T06:02:52;4.23;;;2.70;;
826;SDS011;395;48.132;11.608;2023-02-21T06:05:19;4.83;;;2.83;;
826;SDS011;395;48.132;11.608;2023-02-21T06:07:45;4.30;;;2.97;;
826;SDS011;395;48.132;11.608;2023-02-21T06:10:11;3.53;;;2.63;;
826;SDS011;395;48.132;11.608;2023-02-21T06:12:37;5.30;;;2.87;;
826;SDS011;395;48.132;11.608;2023-02-21T06:15:03;4.00;;;2.50;;
826;SDS011;395;48.132;11.608;2023-02-21T06:17:31;3.70;;;2.47;;
826;SDS011;395;48.132;11.608;2023-02-21T06:19:57;3.33;;;2.93;;
826;SDS011;395;48.132;11.608;2023-02-21T06:22:23;8.10;;;2.87;;
826;SDS011;395;48.132;11.608;2023-02-21T06:24:49;5.00;;;2.70;;
826;SDS011;395;48.132;11.608;2023-02-21T06:27:14;3.60;;;2.30;;
826;SDS011;395;48.132;11.608;2023-02-21T06:29:40;2.40;;;2.20;;
826;SDS011;395;48.132;11.608;2023-02-21T06:32:06;4.93;;;2.50;;
826;SDS011;395;48.132;11.608;2023-02-21T06:34:31;3.00;;;2.40;;
826;SDS011;395;48.132;11.608;2023-02-21T06:36:57;3.03;;;2.60;;
826;SDS011;395;48.132;11.608;2023-02-21T06:39:23;3.10;;;2.80;;
826;SDS011;395;48.132;11.608;2023-02-21T06:41:49;4.10;;;2.63;;
826;SDS011;395;48.132;11.608;2023-02-21T06:44:15;3.22;;;2.10;;
826;SDS011;395;48.132;11.608;2023-02-21T06:46:41;5.60;;;2.73;;
826;SDS011;395;48.132;11.608;2023-02-21T06:49:07;7.60;;;2.77;;
826;SDS011;395;48.132;11.608;2023-02-21T06:51:34;3.27;;;2.40;;
826;SDS011;395;48.132;11.608;2023-02-21T06:54:00;3.83;;;2.20;;
826;SDS011;395;48.132;11.608;2023-02-21T06:56:26;5.53;;;2.10;;
826;SDS011;395;48.132;11.608;2023-02-21T06:58:53;2.73;;;2.00;;
826;SDS011;395;48.132;11.608;2023-02-21T07:01:18;3.10;;;2.10;;
826;SDS011;395;48.132;11.608;2023-02-21T07:03:45;2.27;;;2.07;;
826;SDS011;395;48.132;11.608;2023-02-21T07:06:11;2.83;;;2.27;;
826;SDS011;395;48.132;11.608;2023-02-21T07:08:37;4.30;;;2.20;;
826;SDS011;395;48.132;11.608;2023-02-21T07:11:03;4.63;;;1.97;;
826;SDS011;395;48.132;11.608;2023-02-21T07:13:29;2.53;;;2.33;;
826;SDS011;395;48.132;11.608;2023-02-21T07:15:55;3.90;;;2.87;;
826;SDS011;395;48.132;11.608;2023-02-21T07:18:21;5.70;;;2.50;;
826;SDS011;395;48.132;11.608;2023-02-21T07:20:47;3.60;;;2.80;;
826;SDS011;395;48.132;11.608;2023-02-21T07:23:13;5.93;;;3.13;;
826;SDS011;395;48.132;11.608;2023-02-21T07:25:39;3.40;;;2.63;;
826;SDS011;395;48.132;11.608;2023-02-21T07:28:05;8.10;;;3.30;;
826;SDS011;395;48.132;11.608;2023-02-21T07:30:30;3.90;;;3.60;;
826;SDS011;395;48.132;11.608;2023-02-21T07:32:56;9.33;;;3.40;;
826;SDS011;395;48.132;11.608;2023-02-21T07:35:23;6.70;;;4.00;;
826;SDS011;395;48.132;11.608;2023-02-21T07:37:48;7.53;;;5.30;;
826;SDS011;395;48.132;11.608;2023-02-21T07:40:14;6.60;;;4.50;;
826;SDS011;395;48.132;11.608;2023-02-21T07:42:40;5.23;;;3.67;;
826;SDS011;395;48.132;11.608;2023-02-21T07:45:11;5.53;;;2.97;;
826;SDS011;395;48.132;11.608;2023-02-21T07:47:38;4.40;;;3.13;;
826;SDS011;395;48.132;11.608;2023-02-21T07:50:04;6.70;;;2.77;;
826;SDS011;395;48.132;11.608;2023-02-21T07:52:30;4.50;;;2.57;;
826;SDS011;395;48.132;11.608;2023-02-21T07:54:56;5.70;;;2.40;;
826;SDS011;395;48.132;11.608;2023-02-21T07:57:22;4.50;;;3.10;;
826;SDS011;395;48.132;11.608;2023-02-21T07:59:47;4.17;;;2.87;;
826;SDS011;395;48.132;11.608;2023-02-21T08:02:13;5.60;;;2.80;;
826;SDS011;395;48.132;11.608;2023-02-21T08:04:39;5.93;;;2.57;;
826;SDS011;395;48.132;11.608;2023-02-21T08:07:06;4.93;;;3.13;;
826;SDS011;395;48.132;11.608;2023-02-21T08:09:32;4.97;;;2.93;;
826;SDS011;395;48.132;11.608;2023-02-21T08:11:59;6.07;;;2.60;;
826;SDS011;395;48.132;11.608;2023-02-21T08:14:24;3.63;;;2.70;;
826;SDS011;395;48.132;11.608;2023-02-21T08:16:50;5.40;;;3.73;;
826;SDS011;395;48.132;11.608;2023-02-21T08:19:16;3.90;;;2.60;;
826;SDS011;395;48.132;11.608;2023-02-21T08:21:45;4.80;;;2.90;;
826;SDS011;395;48.132;11.608;2023-02-21T08:24:12;2.60;;;2.20;;
826;SDS011;395;48.132;11.608;2023-02-21T08:26:38;6.30;;;2.50;;
826;SDS011;395;48.132;11.608;2023-02-21T08:29:06;3.93;;;2.13;;
826;SDS011;395;48.132;11.608;2023-02-21T08:31:35;7.63;;;2.77;;
826;SDS011;395;48.132;11.608;2023-02-21T08:34:02;5.80;;;2.80;;
826;SDS011;395;48.132;11.608;2023-02-21T08:36:35;6.07;;;2.70;;
826;SDS011;395;48.132;11.608;2023-02-21T08:39:02;4.90;;;2.60;;
826;SDS011;395;48.132;11.608;2023-02-21T08:41:36;5.47;;;3.03;;
826;SDS011;395;48.132;11.608;2023-02-21T08:44:09;3.60;;;2.20;;
826;SDS011;395;48.132;11.608;2023-02-21T08:46:36;4.70;;;3.33;;
826;SDS011;395;48.132;11.608;2023-02-21T08:49:03;2.60;;;2.20;;
826;SDS011;395;48.132;11.608;2023-02-21T08:51:30;3.17;;;1.70;;
826;SDS011;395;48.132;11.608;2023-02-21T08:53:56;4.43;;;2.20;;
826;SDS011;395;48.132;11.608;2023-02-21T08:56:23;3.23;;;2.10;;
826;SDS011;395;48.132;11.608;2023-02-21T08:58:50;4.40;;;2.03;;
826;SDS011;395;48.132;11.608;2023-02-21T09:01:18;2.80;;;2.43;;
826;SDS011;395;48.132;11.608;2023-02-21T09:03:45;3.30;;;2.17;;
826;SDS011;395;48.132;11.608;2023-02-21T09:06:11;2.67;;;1.97;;
826;SDS011;395;48.132;11.608;2023-02-21T09:08:37;2.90;;;1.83;;
826;SDS011;395;48.132;11.608;2023-02-21T09:11:04;2.80;;;1.90;;
826;SDS011;395;48.132;11.608;2023-02-21T09:13:30;3.57;;;2.00;;
826;SDS011;395;48.132;11.608;2023-02-21T09:15:57;2.77;;;1.90;;
826;SDS011;395;48.132;11.608;2023-02-21T09:18:24;5.87;;;2.70;;
826;SDS011;395;48.132;11.608;2023-02-21T09:20:50;3.43;;;2.03;;
826;SDS011;395;48.132;11.608;2023-02-21T09:23:18;4.33;;;2.07;;
826;SDS011;395;48.132;11.608;2023-02-21T09:25:45;3.03;;;2.07;;
826;SDS011;395;48.132;11.608;2023-02-21T09:28:14;3.20;;;1.83;;
826;SDS011;395;48.132;11.608;2023-02-21T09:30:40;4.20;;;1.83;;
826;SDS011;395;48.132;11.608;2023-02-21T09:33:06;4.57;;;1.80;;
826;SDS011;395;48.132;11.608;2023-02-21T09:35:32;4.47;;;3.30;;
826;SDS011;395;48.132;11.608;2023-02-21T09:37:58;2.40;;;1.70;;
826;SDS011;395;48.132;11.608;2023-02-21T09:43:33;1.57;;;1.47;;
826;SDS011;395;48.132;11.608;2023-02-21T09:46:02;2.40;;;1.70;;
826;SDS011;395;48.132;11.608;2023-02-21T09:48:31;4.33;;;1.67;;
826;SDS011;395;48.132;11.608;2023-02-21T09:51:04;7.83;;;1.80;;
826;SDS011;395;48.132;11.608;2023-02-21T09:53:33;4.00;;;1.40;;
826;SDS011;395;48.132;11.608;2023-02-21T09:56:04;3.50;;;1.70;;
826;SDS011;395;48.132;11.608;2023-02-21T09:58:38;3.13;;;1.70;;
826;SDS011;395;48.132;11.608;2023-02-21T10:01:10;2.17;;;1.53;;
826;SDS011;395;48.132;11.608;2023-02-21T10:04:11;2.60;;;1.23;;
826;SDS011;395;48.132;11.608;2023-02-21T10:06:38;1.73;;;1.60;;
826;SDS011;395;48.132;11.608;2023-02-21T10:12:23;1.60;;;1.37;;
826;SDS011;395;48.132;11.608;2023-02-21T10:21:28;2.60;;;1.47;;
826;SDS011;395;48.132;11.608;2023-02-21T10:23:55;1.50;;;1.00;;
826;SDS011;395;48.132;11.608;2023-02-21T10:26:25;3.00;;;1.50;;
826;SDS011;395;48.132;11.608;2023-02-21T10:28:53;3.20;;;1.70;;
826;SDS011;395;48.132;11.608;2023-02-21T10:31:23;5.00;;;1.23;;
826;SDS011;395;48.132;11.608;2023-02-21T10:33:55;4.07;;;1.50;;
826;SDS011;395;48.132;11.608;2023-02-21T10:36:21;2.57;;;1.20;;
826;SDS011;395;48.132;11.608;2023-02-21T10:38:54;2.50;;;1.10;;
826;SDS011;395;48.132;11.608;2023-02-21T10:41:23;1.70;;;1.03;;
826;SDS011;395;48.132;11.608;2023-02-21T10:43:54;1.50;;;0.97;;
826;SDS011;395;48.132;11.608;2023-02-21T10:46:33;3.23;;;1.47;;
826;SDS011;395;48.132;11.608;2023-02-21T10:54:33;1.70;;;1.10;;
826;SDS011;395;48.132;11.608;2023-02-21T10:56:59;1.87;;;1.60;;
826;SDS011;395;48.132;11.608;2023-02-21T10:59:31;1.70;;;1.27;;
826;SDS011;395;48.132;11.608;2023-02-21T11:02:00;1.20;;;1.00;;
826;SDS011;395;48.132;11.608;2023-02-21T11:07:06;3.70;;;0.97;;
826;SDS011;395;48.132;11.608;2023-02-21T11:12:17;1.60;;;0.90;;
826;SDS011;395;48.132;11.608;2023-02-21T11:15:02;1.67;;;1.57;;
826;SDS011;395;48.132;11.608;2023-02-21T11:17:30;1.63;;;1.23;;
826;SDS011;395;48.132;11.608;2023-02-21T11:19:58;1.67;;;1.30;;
826;SDS011;395;48.132;11.608;2023-02-21T11:27:43;2.27;;;1.40;;
826;SDS011;395;48.132;11.608;2023-02-21T11:30:12;1.33;;;1.00;;
826;SDS011;395;48.132;11.608;2023-02-21T11:32:49;4.50;;;1.30;;
826;SDS011;395;48.132;11.608;2023-02-21T11:41:13;2.03;;;1.27;;
826;SDS011;395;48.132;11.608;2023-02-21T11:43:19;2.10;;;1.30;;
826;SDS011;395;48.132;11.608;2023-02-21T11:49:25;4.40;;;1.20;;
826;SDS011;395;48.132;11.608;2023-02-21T11:52:10;5.10;;;1.27;;
826;SDS011;395;48.132;11.608;2023-02-21T11:54:42;2.50;;;1.07;;
826;SDS011;395;48.132;11.608;2023-02-21T11:57:24;1.60;;;1.30;;
826;SDS011;395;48.132;11.608;2023-02-21T12:18:32;1.80;;;1.10;;
826;SDS011;395;48.132;11.608;2023-02-21T12:48:15;1.13;;;1.00;;
826;SDS011;395;48.132;11.608;2023-02-21T12:50:43;2.40;;;1.20;;
826;SDS011;395;48.132;11.608;2023-02-21T12:53:59;3.23;;;1.40;;
826;SDS011;395;48.132;11.608;2023-02-21T12:56:14;1.60;;;1.17;;
826;SDS011;395;48.132;11.608;2023-02-21T13:01:29;2.37;;;1.00;;
826;SDS011;395;48.132;11.608;2023-02-21T13:04:19;1.60;;;1.20;;
826;SDS011;395;48.132;11.608;2023-02-21T13:06:54;1.67;;;0.90;;
826;SDS011;395;48.132;11.608;2023-02-21T13:09:36;1.63;;;1.00;;
826;SDS011;395;48.132;11.608;2023-02-21T13:12:13;2.40;;;1.40;;
826;SDS011;395;48.132;11.608;2023-02-21T13:17:12;2.03;;;0.97;;
826;SDS011;395;48.132;11.608;2023-02-21T13:19:53;1.23;;;0.80;;
826;SDS011;395;48.132;11.608;2023-02-21T13:28:52;1.80;;;1.03;;
826;SDS011;395;48.132;11.608;2023-02-21T13:31:20;1.67;;;0.80;;
826;SDS011;395;48.132;11.608;2023-02-21T13:33:54;1.63;;;1.07;;
826;SDS011;395;48.132;11.608;2023-02-21T13:39:04;1.60;;;1.00;;
826;SDS011;395;48.132;11.608;2023-02-21T13:41:35;1.90;;;1.27;;
826;SDS011;395;48.132;11.608;2023-02-21T13:47:06;2.07;;;0.90;;
826;SDS011;395;48.132;11.608;2023-02-21T13:57:45;2.67;;;1.10;;
826;SDS011;395;48.132;11.608;2023-02-21T14:02:54;1.83;;;1.00;;
826;SDS011;395;48.132;11.608;2023-02-21T14:05:25;4.00;;;1.27;;
826;SDS011;395;48.132;11.608;2023-02-21T14:21:03;3.00;;;1.20;;
826;SDS011;395;48.132;11.608;2023-02-21T14:24:38;1.57;;;0.90;;
826;SDS011;395;48.132;11.608;2023-02-21T14:26:48;0.90;;;0.70;;
826;SDS011;395;48.132;11.608;2023-02-21T14:29:27;1.50;;;0.83;;
826;SDS011;395;48.132;11.608;2023-02-21T14:34:35;2.00;;;0.70;;
826;SDS011;395;48.132;11.608;2023-02-21T14:40:02;0.90;;;0.70;;
826;SDS011;395;48.132;11.608;2023-02-21T14:46:06;0.93;;;0.80;;
826;SDS011;395;48.132;11.608;2023-02-21T14:52:12;1.20;;;0.80;;
826;SDS011;395;48.132;11.608;2023-02-21T14:55:12;1.30;;;1.00;;
826;SDS011;395;48.132;11.608;2023-02-21T15:01:09;1.30;;;0.90;;
826;SDS011;395;48.132;11.608;2023-02-21T15:03:45;1.43;;;1.00;;
826;SDS011;395;48.132;11.608;2023-02-21T15:06:19;3.43;;;0.93;;
826;SDS011;395;48.132;11.608;2023-02-21T15:08:49;2.50;;;0.80;;
826;SDS011;395;48.132;11.608;2023-02-21T15:11:29;1.87;;;1.10;;
826;SDS011;395;48.132;11.608;2023-02-21T15:14:11;2.60;;;0.90;;
826;SDS011;395;48.132;11.608;2023-02-21T15:16:47;2.17;;;1.10;;
826;SDS011;395;48.132;11.608;2023-02-21T15:27:36;0.80;;;0.80;;
826;SDS011;395;48.132;11.608;2023-02-21T15:30:19;1.43;;;0.97;;
826;SDS011;395;48.132;11.608;2023-02-21T15:32:58;1.70;;;0.70;;
826;SDS011;395;48.132;11.608;2023-02-21T15:35:31;4.10;;;0.80;;
826;SDS011;395;48.132;11.608;2023-02-21T15:38:00;1.03;;;0.90;;
826;SDS011;395;48.132;11.608;2023-02-21T15:40:29;3.60;;;0.80;;
826;SDS011;395;48.132;11.608;2023-02-21T15:42:55;0.80;;;0.57;;
826;SDS011;395;48.132;11.608;2023-02-21T15:47:49;1.83;;;1.17;;
826;SDS011;395;48.132;11.608;2023-02-21T15:50:25;2.47;;;1.00;;
826;SDS011;395;48.132;11.608;2023-02-21T15:55:50;0.90;;;0.80;;
826;SDS011;395;48.132;11.608;2023-02-21T15:58:21;0.60;;;0.60;;
826;SDS011;395;48.132;11.608;2023-02-21T16:01:10;1.57;;;0.83;;
826;SDS011;395;48.132;11.608;2023-02-21T16:06:12;2.20;;;0.90;;
826;SDS011;395;48.132;11.608;2023-02-21T16:08:39;2.17;;;0.80;;
826;SDS011;395;48.132;11.608;2023-02-21T16:11:17;3.03;;;1.50;;
826;SDS011;395;48.132;11.608;2023-02-21T16:13:44;6.03;;;1.60;;
826;SDS011;395;48.132;11.608;2023-02-21T16:16:10;3.07;;;1.20;;
826;SDS011;395;48.132;11.608;2023-02-21T16:18:36;2.53;;;1.30;;
826;SDS011;395;48.132;11.608;2023-02-21T16:21:06;7.30;;;2.40;;
826;SDS011;395;48.132;11.608;2023-02-21T16:23:45;6.77;;;2.40;;
826;SDS011;395;48.132;11.608;2023-02-21T16:28:43;9.00;;;2.53;;
826;SDS011;395;48.132;11.608;2023-02-21T16:31:22;4.87;;;1.77;;
826;SDS011;395;48.132;11.608;2023-02-21T16:33:58;10.53;;;1.80;;
826;SDS011;395;48.132;11.608;2023-02-21T16:36:28;6.20;;;1.63;;
826;SDS011;395;48.132;11.608;2023-02-21T16:38:56;4.03;;;1.70;;
826;SDS011;395;48.132;11.608;2023-02-21T16:41:22;2.20;;;1.13;;
826;SDS011;395;48.132;11.608;2023-02-21T16:43:48;2.90;;;1.33;;
826;SDS011;395;48.132;11.608;2023-02-21T16:46:15;2.50;;;1.10;;
826;SDS011;395;48.132;11.608;2023-02-21T16:48:51;3.93;;;1.30;;
826;SDS011;395;48.132;11.608;2023-02-21T16:51:18;2.70;;;1.17;;
826;SDS011;395;48.132;11.608;2023-02-21T16:53:44;2.27;;;1.20;;
826;SDS011;395;48.132;11.608;2023-02-21T16:56:10;4.57;;;1.40;;
826;SDS011;395;48.132;11.608;2023-02-21T16:58:38;2.50;;;1.33;;
826;SDS011;395;48.132;11.608;2023-02-21T17:01:07;3.07;;;1.10;;
826;SDS011;395;48.132;11.608;2023-02-21T17:03:37;3.27;;;1.27;;
826;SDS011;395;48.132;11.608;2023-02-21T17:06:04;4.90;;;1.50;;
826;SDS011;395;48.132;11.608;2023-02-21T17:08:31;3.13;;;0.90;;
826;SDS011;395;48.132;11.608;2023-02-21T17:10:57;2.80;;;1.23;;
826;SDS011;395;48.132;11.608;2023-02-21T17:13:23;2.03;;;1.43;;
826;SDS011;395;48.132;11.608;2023-02-21T17:15:49;4.70;;;1.50;;
826;SDS011;395;48.132;11.608;2023-02-21T17:18:15;2.87;;;1.33;;
826;SDS011;395;48.132;11.608;2023-02-21T17:20:41;2.30;;;1.33;;
826;SDS011;395;48.132;11.608;2023-02-21T17:23:07;3.10;;;1.20;;
826;SDS011;395;48.132;11.608;2023-02-21T17:25:32;3.17;;;1.83;;
826;SDS011;395;48.132;11.608;2023-02-21T17:28:00;2.80;;;1.43;;
826;SDS011;395;48.132;11.608;2023-02-21T17:30:26;2.37;;;1.50;;
826;SDS011;395;48.132;11.608;2023-02-21T17:32:52;5.23;;;2.00;;
826;SDS011;395;48.132;11.608;2023-02-21T17:35:18;3.20;;;2.00;;
826;SDS011;395;48.132;11.608;2023-02-21T17:37:46;3.17;;;1.70;;
826;SDS011;395;48.132;11.608;2023-02-21T17:40:13;3.20;;;1.63;;
826;SDS011;395;48.132;11.608;2023-02-21T17:42:40;3.70;;;2.00;;
826;SDS011;395;48.132;11.608;2023-02-21T17:45:05;3.53;;;1.67;;
826;SDS011;395;48.132;11.608;2023-02-21T17:47:32;1.73;;;1.50;;
826;SDS011;395;48.132;11.608;2023-02-21T17:49:59;2.97;;;1.87;;
826;SDS011;395;48.132;11.608;2023-02-21T17:52:25;4.57;;;2.27;;
826;SDS011;395;48.132;11.608;2023-02-21T17:54:51;6.83;;;2.10;;
826;SDS011;395;48.132;11.608;2023-02-21T17:57:18;2.60;;;1.77;;
826;SDS011;395;48.132;11.608;2023-02-21T17:59:44;3.83;;;2.00;;
826;SDS011;395;48.132;11.608;2023-02-21T18:02:11;3.63;;;2.90;;
826;SDS011;395;48.132;11.608;2023-02-21T18:04:37;7.07;;;3.20;;
826;SDS011;395;48.132;11.608;2023-02-21T18:07:03;9.07;;;2.73;;
826;SDS011;395;48.132;11.608;2023-02-21T18:09:29;4.60;;;2.60;;
826;SDS011;395;48.132;11.608;2023-02-21T18:11:56;4.80;;;2.60;;
826;SDS011;395;48.132;11.608;2023-02-21T18:14:23;5.97;;;2.80;;
826;SDS011;395;48.132;11.608;2023-02-21T18:16:50;6.80;;;2.87;;
826;SDS011;395;48.132;11.608;2023-02-21T18:19:17;3.03;;;2.50;;
826;SDS011;395;48.132;11.608;2023-02-21T18:21:45;6.93;;;3.27;;
826;SDS011;395;48.132;11.608;2023-02-21T18:24:11;4.30;;;2.73;;
826;SDS011;395;48.132;11.608;2023-02-21T18:26:38;7.30;;;3.00;;
826;SDS011;395;48.132;11.608;2023-02-21T18:29:04;5.07;;;3.20;;
826;SDS011;395;48.132;11.608;2023-02-21T18:31:31;8.10;;;3.60;;
826;SDS011;395;48.132;11.608;2023-02-21T18:33:58;6.63;;;3.63;;
826;SDS011;395;48.132;11.608;2023-02-21T18:36:25;5.10;;;3.67;;
826;SDS011;395;48.132;11.608;2023-02-21T18:38:50;6.73;;;3.70;;
826;SDS011;395;48.132;11.608;2023-02-21T18:41:17;6.53;;;3.60;;
826;SDS011;395;48.132;11.608;2023-02-21T18:43:47;7.33;;;4.10;;
826;SDS011;395;48.132;11.608;2023-02-21T18:46:15;5.17;;;4.07;;
826;SDS011;395;48.132;11.608;2023-02-21T18:48:44;9.07;;;4.83;;
826;SDS011;395;48.132;11.608;2023-02-21T18:51:11;9.97;;;5.17;;
826;SDS011;395;48.132;11.608;2023-02-21T18:53:39;5.70;;;4.37;;
826;SDS011;395;48.132;11.608;2023-02-21T18:56:08;5.30;;;4.67;;
826;SDS011;395;48.132;11.608;2023-02-21T18:58:35;6.43;;;4.50;;
826;SDS011;395;48.132;11.608;2023-02-21T19:01:02;6.43;;;4.73;;
826;SDS011;395;48.132;11.608;2023-02-21T19:03:28;6.73;;;4.60;;
826;SDS011;395;48.132;11.608;2023-02-21T19:05:54;7.33;;;5.20;;
826;SDS011;395;48.132;11.608;2023-02-21T19:08:19;8.00;;;5.23;;